createdAt,value
2023-07-01T00:01:06.252Z,9.62
2023-07-01T00:03:32.872Z,9.58
2023-07-01T00:06:02.733Z,9.62
2023-07-01T00:08:29.570Z,9.54
2023-07-01T00:11:00.387Z,9.52
2023-07-01T00:13:29.096Z,9.53
2023-07-01T00:15:56.888Z,9.44
2023-07-01T00:18:24.270Z,9.51
2023-07-01T00:20:51.354Z,9.55
2023-07-01T00:23:18.072Z,9.50
2023-07-01T00:25:44.595Z,9.42
2023-07-01T00:28:11.182Z,9.45
2023-07-01T00:30:37.678Z,9.35
2023-07-01T00:33:05.528Z,9.32
2023-07-01T00:35:33.139Z,9.30
2023-07-01T00:37:59.930Z,9.23
2023-07-01T00:40:26.614Z,9.26
2023-07-01T00:42:53.182Z,9.29
2023-07-01T00:45:19.706Z,9.20
2023-07-01T00:47:46.378Z,9.24
2023-07-01T00:50:15.130Z,9.18
2023-07-01T00:52:42.942Z,9.13
2023-07-01T00:55:11.047Z,9.16
2023-07-01T00:57:37.861Z,9.25
2023-07-01T01:00:11.693Z,9.20
2023-07-01T01:03:16.152Z,9.12
2023-07-01T01:05:54.140Z,9.06
2023-07-01T01:08:43.402Z,9.04
2023-07-01T01:11:11.160Z,9.06
2023-07-01T01:13:39.266Z,9.03
2023-07-01T01:16:06.195Z,8.99
2023-07-01T01:18:34.156Z,9.09
2023-07-01T01:21:02.131Z,9.11
2023-07-01T01:23:37.892Z,9.11
2023-07-01T01:26:35.786Z,9.10
2023-07-01T01:29:02.533Z,9.03
2023-07-01T01:31:30.338Z,9.02
2023-07-01T01:33:56.848Z,9.02
2023-07-01T01:36:41.276Z,9.05
2023-07-01T01:39:09.658Z,9.07
2023-07-01T01:41:49.820Z,8.99
2023-07-01T01:44:21.180Z,8.96
2023-07-01T01:46:48.477Z,8.96
2023-07-01T01:49:15.857Z,9.09
2023-07-01T01:51:42.741Z,9.41
2023-07-01T01:54:14.949Z,9.40
2023-07-01T01:56:42.394Z,9.37
2023-07-01T01:59:09.528Z,9.27
2023-07-01T02:01:39.605Z,9.17
2023-07-01T02:04:06.306Z,9.13
2023-07-01T02:06:35.421Z,9.08
2023-07-01T02:09:01.981Z,9.12
2023-07-01T02:11:28.556Z,9.15
2023-07-01T02:13:54.963Z,9.15
2023-07-01T02:16:21.489Z,9.14
2023-07-01T02:18:47.947Z,9.13
2023-07-01T02:21:14.375Z,9.09
2023-07-01T02:23:40.788Z,9.11
2023-07-01T02:26:09.056Z,9.18
2023-07-01T02:28:37.992Z,9.24
2023-07-01T02:31:06.565Z,9.56
2023-07-01T02:33:34.715Z,9.71
2023-07-01T02:36:01.366Z,9.66
2023-07-01T02:38:27.798Z,9.56
2023-07-01T02:40:54.249Z,9.58
2023-07-01T02:43:20.663Z,9.49
2023-07-01T02:45:47.237Z,9.52
2023-07-01T02:48:13.759Z,9.46
2023-07-01T02:50:40.256Z,9.56
2023-07-01T02:53:06.722Z,9.48
2023-07-01T02:55:33.262Z,9.56
2023-07-01T02:57:59.949Z,9.66
2023-07-01T03:00:26.517Z,9.64
2023-07-01T03:02:53.510Z,9.74
2023-07-01T03:05:24.547Z,9.66
2023-07-01T03:07:53.010Z,9.77
2023-07-01T03:10:19.450Z,9.81
2023-07-01T03:12:45.953Z,9.92
2023-07-01T03:15:12.480Z,9.99
2023-07-01T03:17:38.994Z,9.99
2023-07-01T03:20:07.122Z,10.11
2023-07-01T03:22:33.653Z,10.10
2023-07-01T03:25:00.208Z,10.14
2023-07-01T03:27:26.693Z,10.28
2023-07-01T03:29:53.613Z,10.30
2023-07-01T03:32:20.059Z,10.18
2023-07-01T03:34:46.534Z,10.30
2023-07-01T03:37:12.971Z,10.32
2023-07-01T03:39:39.489Z,10.54
2023-07-01T03:42:06.382Z,10.42
2023-07-01T03:44:32.868Z,10.61
2023-07-01T03:46:59.412Z,10.50
2023-07-01T03:49:26.317Z,10.53
2023-07-01T03:51:52.934Z,10.51
2023-07-01T03:54:19.472Z,10.57
2023-07-01T03:56:46.152Z,10.67
2023-07-01T03:59:12.623Z,10.75
2023-07-01T04:01:39.542Z,10.72
2023-07-01T04:04:07.234Z,10.85
2023-07-01T04:06:33.943Z,10.94
2023-07-01T04:09:00.990Z,11.06
2023-07-01T04:11:27.514Z,11.09
2023-07-01T04:13:54.015Z,11.17
2023-07-01T04:16:23.812Z,11.18
2023-07-01T04:18:50.322Z,11.25
2023-07-01T04:21:16.794Z,11.51
2023-07-01T04:23:43.396Z,11.69
2023-07-01T04:26:09.813Z,11.76
2023-07-01T04:28:36.335Z,11.93
2023-07-01T04:31:02.808Z,11.90
2023-07-01T04:33:29.312Z,11.97
2023-07-01T04:35:55.795Z,12.05
2023-07-01T04:38:22.442Z,12.05
2023-07-01T04:40:52.040Z,12.09
2023-07-01T04:43:19.869Z,12.27
2023-07-01T04:45:46.308Z,12.37
2023-07-01T04:48:12.796Z,12.49
2023-07-01T04:50:39.407Z,12.63
2023-07-01T04:53:05.982Z,12.54
2023-07-01T04:55:32.479Z,12.78
2023-07-01T04:57:58.989Z,12.95
2023-07-01T05:00:25.479Z,13.08
2023-07-01T05:02:52.356Z,13.01
2023-07-01T05:05:19.126Z,13.31
2023-07-01T05:07:47.602Z,13.45
2023-07-01T05:10:14.073Z,13.71
2023-07-01T05:12:40.569Z,13.90
2023-07-01T05:15:07.605Z,14.22
2023-07-01T05:17:34.094Z,14.62
2023-07-01T05:20:00.582Z,15.03
2023-07-01T05:22:27.017Z,15.43
2023-07-01T05:24:53.429Z,15.58
2023-07-01T05:27:20.056Z,15.57
2023-07-01T05:29:46.486Z,15.77
2023-07-01T05:32:12.948Z,16.03
2023-07-01T05:34:39.523Z,16.41
2023-07-01T05:37:06.130Z,16.77
2023-07-01T05:39:32.715Z,17.18
2023-07-01T05:41:59.320Z,17.38
2023-07-01T05:44:26.245Z,17.61
2023-07-01T05:46:53.744Z,18.03
2023-07-01T05:49:20.243Z,18.07
2023-07-01T05:51:46.757Z,17.91
2023-07-01T05:54:13.334Z,18.18
2023-07-01T05:56:41.683Z,18.18
2023-07-01T05:59:08.187Z,18.19
2023-07-01T06:01:34.735Z,18.09
2023-07-01T06:04:02.028Z,18.02
2023-07-01T06:06:28.559Z,18.21
2023-07-01T06:08:55.186Z,18.61
2023-07-01T06:11:23.905Z,18.51
2023-07-01T06:13:50.891Z,18.31
2023-07-01T06:16:18.393Z,18.37
2023-07-01T06:18:44.963Z,18.83
2023-07-01T06:21:12.054Z,18.89
2023-07-01T06:23:38.962Z,18.99
2023-07-01T06:26:06.459Z,19.47
2023-07-01T06:28:33.268Z,19.35
2023-07-01T06:30:59.898Z,19.67
2023-07-01T06:33:26.409Z,19.50
2023-07-01T06:35:53.041Z,19.79
2023-07-01T06:38:19.623Z,20.26
2023-07-01T06:40:47.340Z,20.75
2023-07-01T06:43:14.342Z,19.97
2023-07-01T06:45:41.232Z,20.83
2023-07-01T06:48:07.944Z,20.77
2023-07-01T06:50:35.584Z,21.12
2023-07-01T06:53:02.813Z,21.00
2023-07-01T06:55:29.278Z,20.75
2023-07-01T06:57:55.798Z,21.25
2023-07-01T07:00:22.506Z,21.54
2023-07-01T07:02:49.220Z,21.15
2023-07-01T07:05:15.783Z,21.30
2023-07-01T07:07:42.206Z,20.97
2023-07-01T07:10:09.155Z,21.53
2023-07-01T07:12:35.604Z,22.15
2023-07-01T07:15:02.627Z,21.63
2023-07-01T07:17:29.419Z,21.15
2023-07-01T07:19:56.465Z,20.76
2023-07-01T07:22:23.125Z,20.67
2023-07-01T07:24:49.564Z,20.60
2023-07-01T07:27:16.076Z,19.97
2023-07-01T07:29:42.569Z,19.85
2023-07-01T07:32:09.481Z,19.92
2023-07-01T07:34:35.938Z,19.55
2023-07-01T07:37:05.552Z,19.37
2023-07-01T07:39:32.346Z,19.54
2023-07-01T07:41:58.838Z,19.53
2023-07-01T07:44:25.360Z,19.52
2023-07-01T07:46:51.944Z,19.26
2023-07-01T07:49:18.456Z,19.52
2023-07-01T07:51:44.922Z,19.13
2023-07-01T07:54:11.890Z,19.36
2023-07-01T07:56:38.436Z,19.31
2023-07-01T07:59:05.013Z,19.32
2023-07-01T08:01:31.589Z,19.48
2023-07-01T08:03:58.213Z,19.85
2023-07-01T08:06:25.109Z,19.84
2023-07-01T08:08:51.635Z,19.80
2023-07-01T08:11:18.190Z,19.56
2023-07-01T08:13:45.604Z,19.53
2023-07-01T08:16:14.162Z,19.80
2023-07-01T08:18:40.936Z,20.03
2023-07-01T08:21:07.482Z,20.11
2023-07-01T08:23:34.191Z,19.33
2023-07-01T08:26:00.905Z,19.75
2023-07-01T08:28:32.725Z,19.75
2023-07-01T08:30:59.663Z,19.78
2023-07-01T08:33:27.343Z,19.74
2023-07-01T08:35:53.911Z,19.49
2023-07-01T08:38:20.529Z,19.11
2023-07-01T08:40:51.486Z,19.20
2023-07-01T08:43:21.210Z,19.37
2023-07-01T08:45:52.192Z,19.50
2023-07-01T08:48:22.438Z,19.27
2023-07-01T08:50:55.122Z,19.23
2023-07-01T08:53:21.883Z,19.22
2023-07-01T08:55:49.225Z,19.20
2023-07-01T08:58:16.676Z,19.28
2023-07-01T09:00:44.514Z,19.39
2023-07-01T09:03:13.151Z,19.58
2023-07-01T09:05:39.701Z,19.71
2023-07-01T09:08:06.248Z,20.24
2023-07-01T09:10:32.892Z,20.50
2023-07-01T09:13:17.346Z,19.86
2023-07-01T09:15:48.457Z,19.93
2023-07-01T09:18:26.267Z,19.77
2023-07-01T09:20:53.741Z,19.97
2023-07-01T09:23:30.856Z,19.85
2023-07-01T09:26:12.624Z,19.69
2023-07-01T09:28:39.686Z,19.56
2023-07-01T09:31:08.781Z,19.42
2023-07-01T09:33:38.380Z,19.29
2023-07-01T09:36:06.100Z,19.24
2023-07-01T09:38:33.794Z,19.16
2023-07-01T09:41:18.226Z,19.55
2023-07-01T09:43:45.009Z,19.38
2023-07-01T09:46:12.037Z,19.31
2023-07-01T09:48:38.623Z,19.21
2023-07-01T09:51:06.283Z,19.04
2023-07-01T09:53:35.125Z,19.23
2023-07-01T09:56:09.753Z,19.30
2023-07-01T09:58:36.170Z,19.17
2023-07-01T10:01:02.806Z,19.29
2023-07-01T10:03:29.609Z,19.81
2023-07-01T10:05:56.319Z,19.78
2023-07-01T10:08:23.223Z,20.27
2023-07-01T10:11:06.745Z,19.98
2023-07-01T10:13:40.972Z,19.81
2023-07-01T10:16:09.418Z,19.77
2023-07-01T10:18:36.265Z,19.73
2023-07-01T10:21:24.828Z,19.61
2023-07-01T10:23:59.712Z,19.44
2023-07-01T10:26:48.836Z,19.34
2023-07-01T10:29:30.859Z,19.13
2023-07-01T10:32:09.664Z,19.16
2023-07-01T10:34:54.270Z,18.87
2023-07-01T10:37:23.451Z,18.89
2023-07-01T10:39:51.065Z,18.83
2023-07-01T10:42:34.714Z,19.06
2023-07-01T10:45:13.534Z,18.86
2023-07-01T10:48:06.997Z,18.81
2023-07-01T10:50:33.553Z,18.70
2023-07-01T10:53:02.468Z,18.65
2023-07-01T10:55:41.143Z,18.34
2023-07-01T10:58:25.265Z,18.27
2023-07-01T11:00:59.199Z,18.15
2023-07-01T11:03:35.187Z,17.68
2023-07-01T11:06:11.913Z,17.37
2023-07-01T11:08:50.440Z,17.37
2023-07-01T11:11:24.096Z,17.43
2023-07-01T11:14:02.942Z,17.36
2023-07-01T11:16:30.339Z,17.28
2023-07-01T11:19:00.132Z,17.53
2023-07-01T11:21:29.931Z,17.52
2023-07-01T11:24:02.587Z,17.52
2023-07-01T11:26:38.416Z,17.80
2023-07-01T11:29:15.899Z,17.85
2023-07-01T11:31:42.530Z,17.88
2023-07-01T11:34:11.531Z,17.44
2023-07-01T11:36:38.146Z,17.16
2023-07-01T11:39:23.268Z,17.30
2023-07-01T11:41:55.667Z,17.43
2023-07-01T11:44:28.052Z,17.44
2023-07-01T11:46:57.194Z,17.42
2023-07-01T11:49:24.687Z,17.48
2023-07-01T11:51:51.980Z,17.30
2023-07-01T11:54:21.181Z,17.40
2023-07-01T11:56:49.315Z,17.48
2023-07-01T11:59:33.394Z,17.63
2023-07-01T12:02:01.302Z,17.30
2023-07-01T12:04:31.434Z,17.45
2023-07-01T12:07:14.086Z,17.62
2023-07-01T12:09:42.437Z,17.83
2023-07-01T12:12:11.249Z,17.68
2023-07-01T12:14:39.642Z,17.73
2023-07-01T12:17:06.464Z,17.67
2023-07-01T12:19:33.371Z,17.83
2023-07-01T12:22:00.792Z,17.85
2023-07-01T12:24:30.105Z,18.06
2023-07-01T12:26:59.085Z,17.94
2023-07-01T12:29:26.393Z,18.15
2023-07-01T12:31:56.508Z,18.56
2023-07-01T12:34:23.209Z,18.61
2023-07-01T12:36:49.847Z,18.92
2023-07-01T12:39:19.098Z,18.61
2023-07-01T12:41:47.755Z,18.60
2023-07-01T12:44:14.632Z,18.94
2023-07-01T12:46:44.456Z,18.49
2023-07-01T12:49:11.940Z,18.70
2023-07-01T12:51:38.725Z,18.85
2023-07-01T12:54:17.000Z,19.16
2023-07-01T12:56:45.128Z,19.03
2023-07-01T12:59:11.909Z,18.97
2023-07-01T13:01:41.957Z,18.91
2023-07-01T13:04:09.366Z,18.79
2023-07-01T13:06:39.926Z,18.62
2023-07-01T13:09:11.264Z,18.59
2023-07-01T13:11:39.460Z,18.52
2023-07-01T13:14:15.408Z,18.43
2023-07-01T13:16:44.294Z,18.32
2023-07-01T13:19:12.773Z,18.20
2023-07-01T13:21:45.054Z,17.74
2023-07-01T13:24:14.098Z,17.85
2023-07-01T13:26:45.723Z,17.70
2023-07-01T13:29:20.115Z,17.46
2023-07-01T13:31:48.480Z,17.58
2023-07-01T13:34:20.075Z,17.83
2023-07-01T13:36:51.947Z,17.87
2023-07-01T13:39:42.551Z,17.91
2023-07-01T13:42:10.618Z,17.88
2023-07-01T13:44:39.396Z,18.10
2023-07-01T13:47:11.823Z,18.26
2023-07-01T13:49:38.819Z,18.14
2023-07-01T13:52:06.152Z,18.05
2023-07-01T13:54:32.748Z,18.09
2023-07-01T13:57:02.165Z,18.21
2023-07-01T13:59:31.333Z,18.21
2023-07-01T14:02:03.983Z,18.29
2023-07-01T14:04:33.044Z,18.47
2023-07-01T14:07:00.856Z,18.56
2023-07-01T14:09:29.694Z,18.43
2023-07-01T14:11:57.225Z,18.43
2023-07-01T14:14:32.171Z,18.40
2023-07-01T14:17:02.259Z,18.42
2023-07-01T14:19:29.953Z,18.44
2023-07-01T14:22:00.426Z,18.48
2023-07-01T14:24:30.516Z,18.64
2023-07-01T14:26:59.954Z,18.89
2023-07-01T14:29:27.938Z,19.09
2023-07-01T14:31:58.473Z,18.82
2023-07-01T14:34:40.386Z,18.92
2023-07-01T14:37:07.019Z,18.72
2023-07-01T14:39:46.789Z,18.70
2023-07-01T14:42:15.979Z,18.57
2023-07-01T14:44:42.620Z,18.17
2023-07-01T14:47:09.149Z,18.13
2023-07-01T14:49:39.602Z,17.56
2023-07-01T14:52:06.783Z,17.75
2023-07-01T14:54:33.301Z,17.75
2023-07-01T14:56:59.957Z,17.78
2023-07-01T14:59:26.425Z,17.65
2023-07-01T15:01:55.289Z,17.66
2023-07-01T15:04:21.869Z,17.91
2023-07-01T15:06:48.376Z,18.21
2023-07-01T15:09:14.921Z,18.14
2023-07-01T15:11:42.402Z,17.96
2023-07-01T15:14:08.909Z,17.94
2023-07-01T15:16:35.473Z,18.35
2023-07-01T15:19:02.036Z,18.44
2023-07-01T15:21:28.685Z,18.61
2023-07-01T15:23:55.300Z,18.50
2023-07-01T15:26:21.923Z,18.38
2023-07-01T15:28:48.720Z,18.24
2023-07-01T15:31:15.319Z,18.31
2023-07-01T15:33:41.858Z,18.39
2023-07-01T15:36:08.352Z,18.48
2023-07-01T15:38:35.172Z,18.43
2023-07-01T15:41:02.703Z,18.58
2023-07-01T15:43:29.213Z,18.90
2023-07-01T15:45:56.208Z,18.93
2023-07-01T15:48:25.245Z,18.79
2023-07-01T15:50:51.760Z,19.22
2023-07-01T15:53:18.212Z,19.54
2023-07-01T15:55:44.861Z,19.68
2023-07-01T15:58:11.463Z,19.94
2023-07-01T16:00:38.051Z,20.08
2023-07-01T16:03:05.328Z,20.39
2023-07-01T16:05:31.912Z,20.48
2023-07-01T16:08:01.896Z,20.75
2023-07-01T16:10:29.748Z,20.61
2023-07-01T16:13:00.043Z,20.31
2023-07-01T16:15:31.485Z,21.01
2023-07-01T16:18:07.276Z,20.38
2023-07-01T16:20:34.266Z,20.51
2023-07-01T16:23:10.777Z,20.63
2023-07-01T16:25:38.965Z,20.93
2023-07-01T16:28:06.891Z,20.84
2023-07-01T16:30:41.321Z,20.61
2023-07-01T16:33:08.756Z,20.67
2023-07-01T16:35:38.177Z,20.35
2023-07-01T16:38:15.881Z,20.47
2023-07-01T16:40:44.733Z,20.38
2023-07-01T16:43:12.264Z,20.50
2023-07-01T16:45:39.192Z,20.29
2023-07-01T16:48:23.691Z,20.02
2023-07-01T16:50:57.661Z,19.95
2023-07-01T16:53:24.444Z,20.13
2023-07-01T16:55:54.778Z,19.88
2023-07-01T16:58:30.243Z,20.35
2023-07-01T17:01:05.175Z,20.22
2023-07-01T17:03:31.800Z,19.96
2023-07-01T17:06:00.483Z,19.84
2023-07-01T17:08:27.297Z,19.57
2023-07-01T17:10:54.287Z,19.44
2023-07-01T17:13:20.707Z,19.48
2023-07-01T17:15:52.911Z,19.67
2023-07-01T17:18:21.124Z,19.62
2023-07-01T17:20:47.634Z,19.74
2023-07-01T17:23:14.244Z,19.48
2023-07-01T17:25:40.724Z,19.30
2023-07-01T17:28:07.302Z,19.54
2023-07-01T17:30:34.416Z,19.42
2023-07-01T17:33:01.299Z,19.51
2023-07-01T17:35:28.443Z,19.29
2023-07-01T17:37:55.860Z,19.35
2023-07-01T17:40:24.101Z,19.29
2023-07-01T17:42:51.755Z,19.36
2023-07-01T17:45:19.820Z,19.21
2023-07-01T17:47:53.055Z,19.04
2023-07-01T17:50:21.852Z,18.86
2023-07-01T17:52:51.391Z,18.85
2023-07-01T17:55:18.370Z,18.76
2023-07-01T18:00:15.208Z,18.95
2023-07-01T18:02:41.756Z,18.82
2023-07-01T18:05:08.851Z,18.78
2023-07-01T18:07:35.461Z,18.64
2023-07-01T18:10:01.978Z,18.66
2023-07-01T18:12:28.455Z,18.56
2023-07-01T18:15:11.812Z,18.55
2023-07-01T18:17:41.096Z,18.52
2023-07-01T18:20:08.233Z,18.58
2023-07-01T18:22:34.665Z,18.50
2023-07-01T18:25:01.463Z,18.41
2023-07-01T18:27:28.316Z,18.40
2023-07-01T18:29:54.772Z,18.37
2023-07-01T18:32:21.447Z,18.35
2023-07-01T18:34:47.983Z,18.45
2023-07-01T18:37:14.502Z,18.48
2023-07-01T18:39:41.057Z,18.38
2023-07-01T18:42:08.195Z,18.35
2023-07-01T18:44:34.649Z,18.46
2023-07-01T18:47:01.168Z,18.46
2023-07-01T18:49:27.859Z,18.30
2023-07-01T18:51:54.323Z,18.25
2023-07-01T18:54:20.811Z,18.25
2023-07-01T18:56:47.338Z,18.17
2023-07-01T18:59:13.823Z,18.07
2023-07-01T19:01:40.281Z,17.99
2023-07-01T19:04:07.058Z,18.10
2023-07-01T19:06:33.572Z,18.05
2023-07-01T19:09:00.168Z,17.98
2023-07-01T19:11:26.673Z,18.08
2023-07-01T19:13:53.198Z,17.97
2023-07-01T19:16:19.763Z,17.89
2023-07-01T19:18:46.224Z,17.88
2023-07-01T19:21:18.215Z,17.86
2023-07-01T19:23:44.734Z,17.77
2023-07-01T19:26:11.608Z,17.66
2023-07-01T19:28:39.524Z,17.81
2023-07-01T19:31:06.620Z,17.81
2023-07-01T19:33:33.030Z,17.80
2023-07-01T19:35:59.515Z,17.74
2023-07-01T19:38:26.048Z,17.73
2023-07-01T19:40:52.940Z,17.82
2023-07-01T19:43:19.671Z,17.60
2023-07-01T19:45:46.878Z,17.74
2023-07-01T19:48:13.977Z,17.68
2023-07-01T19:50:40.492Z,17.52
2023-07-01T19:53:07.450Z,17.58
2023-07-01T19:55:34.133Z,17.44
2023-07-01T19:58:00.718Z,17.47
2023-07-01T20:00:27.271Z,17.46
2023-07-01T20:02:53.923Z,17.34
2023-07-01T20:05:23.333Z,17.33
2023-07-01T20:07:50.168Z,17.21
2023-07-01T20:10:29.271Z,17.27
2023-07-01T20:12:57.269Z,17.45
2023-07-01T20:15:23.797Z,17.46
2023-07-01T20:17:50.297Z,17.55
2023-07-01T20:20:17.139Z,17.55
2023-07-01T20:22:43.668Z,17.56
2023-07-01T20:25:10.330Z,17.58
2023-07-01T20:27:36.922Z,17.62
2023-07-01T20:30:05.989Z,17.62
2023-07-01T20:32:32.546Z,17.60
2023-07-01T20:34:59.041Z,17.56
2023-07-01T20:37:25.572Z,17.54
2023-07-01T20:39:52.770Z,17.65
2023-07-01T20:42:20.328Z,17.67
2023-07-01T20:44:49.276Z,17.66
2023-07-01T20:47:17.089Z,17.71
2023-07-01T20:49:48.413Z,17.72
2023-07-01T20:52:16.974Z,17.74
2023-07-01T20:54:44.326Z,17.77
2023-07-01T20:57:13.296Z,17.75
2023-07-01T20:59:42.249Z,17.72
2023-07-01T21:02:10.213Z,17.63
2023-07-01T21:04:38.005Z,17.48
2023-07-01T21:07:06.044Z,17.40
2023-07-01T21:09:32.868Z,17.41
2023-07-01T21:11:59.506Z,17.40
2023-07-01T21:14:26.416Z,17.38
2023-07-01T21:16:53.317Z,17.37
2023-07-01T21:19:20.289Z,17.24
2023-07-01T21:21:48.290Z,17.24
2023-07-01T21:24:15.643Z,17.23
2023-07-01T21:26:42.469Z,17.15
2023-07-01T21:29:27.924Z,17.18
2023-07-01T21:31:55.863Z,17.15
2023-07-01T21:34:22.613Z,17.15
2023-07-01T21:36:53.406Z,17.13
2023-07-01T21:39:24.797Z,17.19
2023-07-01T21:41:51.719Z,17.22
2023-07-01T21:44:18.861Z,17.22
2023-07-01T21:46:45.987Z,17.21
2023-07-01T21:49:14.448Z,17.19
2023-07-01T21:51:48.564Z,17.13
2023-07-01T21:54:20.868Z,17.20
2023-07-01T21:56:49.244Z,17.12
2023-07-01T21:59:16.838Z,17.11
2023-07-01T22:01:43.585Z,17.03
2023-07-01T22:04:11.845Z,16.93
2023-07-01T22:06:47.373Z,16.90
2023-07-01T22:09:16.001Z,16.96
2023-07-01T22:11:42.908Z,16.91
2023-07-01T22:14:09.996Z,16.88
2023-07-01T22:16:37.060Z,16.71
2023-07-01T22:19:03.949Z,16.62
2023-07-01T22:21:30.964Z,16.64
2023-07-01T22:23:58.813Z,16.50
2023-07-01T22:26:25.789Z,16.45
2023-07-01T22:28:52.597Z,16.46
2023-07-01T22:31:19.081Z,16.33
2023-07-01T22:33:45.621Z,16.31
2023-07-01T22:36:12.256Z,16.26
2023-07-01T22:38:38.698Z,16.15
2023-07-01T22:41:05.428Z,16.14
2023-07-01T22:43:31.930Z,16.05
2023-07-01T22:45:58.394Z,15.98
2023-07-01T22:48:24.918Z,15.92
2023-07-01T22:50:51.639Z,15.92
2023-07-01T22:53:18.806Z,15.82
2023-07-01T22:55:45.621Z,15.76
2023-07-01T22:58:12.053Z,15.80
2023-07-01T23:00:38.531Z,15.73
2023-07-01T23:03:05.045Z,15.74
2023-07-01T23:05:31.732Z,15.74
2023-07-01T23:07:58.372Z,15.71
2023-07-01T23:10:27.779Z,15.72
2023-07-01T23:12:55.225Z,15.78
2023-07-01T23:15:22.016Z,15.83
2023-07-01T23:17:51.358Z,15.85
2023-07-01T23:20:18.020Z,15.93
2023-07-01T23:22:44.511Z,15.91
2023-07-01T23:25:13.612Z,15.99
2023-07-01T23:27:43.165Z,16.02
2023-07-01T23:30:15.865Z,16.07
2023-07-01T23:32:52.261Z,16.09
2023-07-01T23:35:20.234Z,16.11
2023-07-01T23:37:48.353Z,16.10
2023-07-01T23:40:15.065Z,16.16
2023-07-01T23:42:41.707Z,16.15
2023-07-01T23:45:08.917Z,16.19
2023-07-01T23:47:35.454Z,16.18
2023-07-01T23:50:02.027Z,16.11
2023-07-01T23:52:29.189Z,16.05
2023-07-01T23:54:55.665Z,16.16
2023-07-01T23:57:22.218Z,16.15
2023-07-01T23:59:49.306Z,16.03
